• Join FlightAware (Why Join?)
  • Login
  • US Flag 
08:38PM EST


 

Airport Tracker/Info


-or-


 

Live Flight TrackerFlight Track Log ✈ ASA698 ✈ 10-May-2013 ✈ KSEA - KGEG

Flight Track Log - Related Links

Times and Time Zones

All times are in EDT time to prevent confusion due to time zone crossing. See the ASA698 flight status page for this flight to view local times or setup timezone preferences in your user account.

Time Position Orientation Groundspeed Altitude Reporting Facility
EDT Latitude Longitude Course Direction KTS MPH feet Rate Location/Type
02:15AM 47.4700 -122.3075 360° North 173 199 1,300  Level Seattle Center
02:16AM 47.5350 -122.3081 360° North 218 251 3,900 2,700 Climbing Seattle Center
02:17AM 47.6003 -122.3461 339° North 242 278 7,300 3,300 Climbing Seattle Center
02:18AM 47.6400 -122.4306 305° West 251 289 10,600 3,000 Climbing Seattle Center
02:19AM 47.6969 -122.4881 326° Northwest 279 321 13,400 2,040 Climbing Seattle Center
02:20AM 47.7364 -122.3908 59° Northeast 322 371 14,800 1,680 Climbing Seattle Center
02:21AM 47.7031 -122.2500 109° East 363 418 16,800 2,040 Climbing Seattle Center
02:22AM 47.6747 -122.0953 105° East 390 449 19,000 2,040 Climbing Seattle Center
02:23AM 47.6403 -121.9383 108° East 402 463 21,000 2,100 Climbing Seattle Center
02:24AM 47.6069 -121.7722 107° East 419 482 23,300 1,920 Climbing Seattle Center
02:25AM 47.5722 -121.6053 107° East 426 490 24,900 1,620 Climbing Seattle Center
02:26AM 47.5558 -121.4244 98° East 443 510 26,600 1,680 Climbing Seattle Center
02:27AM 47.5542 -121.2381 91° East 455 524 28,300 1,500 Climbing Seattle Center
02:28AM 47.5508 -121.0489 91° East 465 535 29,700 1,320 Climbing Seattle Center
02:29AM 47.5481 -120.8589 91° East 466 536 31,000 600 Climbing Seattle Center
02:30AM 47.5439 -120.6625 92° East 467 537 31,000  Level Seattle Center
02:31AM 47.5392 -120.4717 92° East 466 536 31,000  Level Seattle Center
02:32AM 47.5325 -120.2808 93° East 465 535 31,000  Level Seattle Center
02:33AM 47.5231 -120.0908 94° East 465 535 31,000  Level Seattle Center
02:34AM 47.5131 -119.9017 94° East 464 534 31,000  Level Seattle Center
02:35AM 47.5050 -119.7131 94° East 463 533 31,000  Level Seattle Center
02:36AM 47.4944 -119.5222 95° East 464 534 31,000 -1,080 Level Seattle Center
02:37AM 47.4853 -119.3350 94° East 459 528 28,900 -2,280 Descending Seattle Center
02:38AM 47.4736 -119.1500 95° East 452 520 26,500 -2,340 Descending Seattle Center
02:39AM 47.4639 -118.9717 95° East 440 506 24,200 -2,340 Descending Seattle Center
02:40AM 47.4536 -118.7992 95° East 429 494 21,900 -2,280 Descending Seattle Center
02:41AM 47.4433 -118.6314 95° East 417 480 19,700 -2,040 Descending Seattle Center
02:42AM 47.4342 -118.4700 95° East 401 461 17,800 -2,040 Descending Seattle Center
02:43AM 47.4261 -118.3131 94° East 386 444 15,600 -1,980 Descending Seattle Center
02:44AM 47.4603 -118.1753 70° East 357 411 13,900 -1,980 Descending Seattle Center
02:45AM 47.5011 -118.0450 65° Northeast 350 403 11,700 -1,740 Descending Seattle Center
02:46AM 47.5394 -117.9183 66° East 337 388 10,400 -1,200 Descending Seattle Center
02:47AM 47.5747 -117.8056 65° Northeast 303 349 9,300 -1,080 Descending Seattle Center
02:48AM 47.6069 -117.6989 66° East 287 330 8,300 -1,080 Descending Seattle Center
02:49AM 47.6594 -117.6078 49° Northeast 243 280 7,200 -900 Descending Seattle Center
02:50AM 47.6928 -117.5544 47° Northeast 226 260 6,500 -840 Descending Seattle Center
02:51AM 47.7289 -117.4950 48° Northeast 197 227 5,600 -1,260 Descending Seattle Center
02:52AM 47.7036 -117.4394 124° Southeast 172 198 4,000 -1,200 Descending Seattle Center
02:53AM 47.6678 -117.4633 204° Southwest 142 163 3,300 -720 Descending Seattle Center
02:54AM 47.6403 -117.5053 226° Southwest 142 163 2,600 -540 Descending Seattle Center
02:55AM 47.6225 -117.5314 225° Southwest 118 136 2,300 -180 Descending Seattle Center
02:56AM 47.6178 -117.5383 225° Southwest 52 60 2,300  Level Seattle Center